Архив погоды в Армавире

Метеограмма Армавир
Среда, 24 Мая
Время местн. Темп Ветер Видим Явления Облачность нижн/средн/верх Атм. давл. Влжн Точка росы ВНГО R Сост. почвы Tg s
Напр Скр Прв ур.ст ур.м изм
03:00 +12.1° С 3 - 10 км умеренный или сильный ливневый дождь облачно 748 763 -0.2 97% +11.6° 600 м - - - -
00:00 +13.3° штиль 0 - 10 км слабый ливневый дождь облачно 749 763 +0.7 95% +12.5° 600 м - - - -
Вторник, 23 Мая
Время местн. Темп Ветер Видим Явления Облачность нижн/средн/верх Атм. давл. Влжн Точка росы ВНГО R Сост. почвы Tg s
Напр Скр Прв ур.ст ур.м изм
21:00 +14° С-В 2 - 10 км слабый ливневый дождь облачно 748 762 +0.8 88% +12° 600 м - - - -
18:00 +16° С,С-В 2 - 10 км - облачно 747 761 +0.2 77% +11.9° 1 км 0 - - -
15:00 +16.4° С 1 - 10 км облака рассеиваются {ливневые осадки} облачно 747 761 -0.4 71% +11.2° 1 км - - - -
12:00 +14.8° С 1 - 10 км слабый ливневый дождь облачно 747 761 +0.6 79% +11.2° 1 км - - - -
09:00 +12.8° З,С-З 1 - 10 км облака рассеиваются {ливневые осадки} облачно 747 761 +0.8 88% +10.8° 1 км - - - -
06:00 +11.7° З 1 - 10 км слабый ливневый дождь облачно 746 760 +0.6 95% +11° 1 км - Влажная (без луж) - -
03:00 +12.1° Ю,Ю-В 1 - 10 км слабый ливневый дождь облачно 745 760 +0.1 95% +11.4° 1 км - - - -
00:00 +12.1° Ю,Ю-В 1 - 10 км слабый ливневый дождь облачно 745 760 +0.2 95% +11.3° 1 км - - - -
Понедельник, 22 Мая
Время местн. Темп Ветер Видим Явления Облачность нижн/средн/верх Атм. давл. Влжн Точка росы ВНГО R Сост. почвы Tg s
Напр Скр Прв ур.ст ур.м изм
21:00 +12° Ю 1 - 10 км ливневый дождь облачно 745 759 +0.5 94% +11.1° 1 км - - - -
18:00 +13.5° З,С-З 4 - 10 км слабый ливневый дождь облачно 745 759 +1.2 80% +10.2° 1 км - - - -
15:00 +19.7° З 2 - 10 км - облачно 743 757 -0.3 51% +9.4° 1 км - - - -
12:00 +17.3° штиль 0 - 10 км - облачно 744 758 -0.4 63% +10.3° - - - - -
09:00 +15.4° Ю-В 1 - 10 км - облачно с прояснениями 744 758 +0.1 72% +10.3° - - - - -
06:00 +9.7° Ю,Ю-В 1 - 10 км - облачно с прояснениями 744 758 -0.1 96% +9.1° более 2.5 км 0 Влажная (без луж) +8° -
03:00 +8.3° Ю-В 1 - 10 км - ясно 744 758 -0.2 95% +7.5° более 2.5 км - - - -
00:00 +9.9° Ю 1 - 10 км - ясно 744 759 +0.1 93% +8.9° более 2.5 км - - - -
Воскресенье, 21 Мая
Время местн. Темп Ветер Видим Явления Облачность нижн/средн/верх Атм. давл. Влжн Точка росы ВНГО R Сост. почвы Tg s
Напр Скр Прв ур.ст ур.м изм
21:00 +12.5° З 1 - 10 км - переменная облачность 744 758 +1.3 79% +9° более 2.5 км - - - -
18:00 +19.2° З 3 - 10 км - переменная облачность 743 757 -0.4 49% +8.2° 1 км - - - -
15:00 +18.9° З 2 - 10 км - облачно 743 757 -0.5 55% +9.6° 1 км - - - -
12:00 +16° Ю-З 3 - 10 км - облачно 744 758 +0.1 67% +9.9° 1 км - - - -
09:00 +14.1° Ю-З 3 - 10 км - облачно 744 758 +0.3 74% +9.6° 1 км - - - -
06:00 +11.2° З 1 - 10 км - облачно 743 758 +0.1 89% +9.5° 1 км 0 Влажная (без луж) +10° -
03:00 +10.6° штиль 0 - 10 км - облачно 743 758 -0.3 95% +9.9° - - - - -
00:00 +10.1° Ю 1 - 4 км дымка переменная облачность 744 758 -0.5 95% +9.4° - - - - -